Time;durP1;ratioP1;P1;durP2;ratioP2;P2;SDS_P1;SDS_P2;PMS_P1;PMS_P2;Temp;Humidity;BMP_temperature;BMP_pressure;BME280_temperature;BME280_humidity;BME280_pressure;Samples;Min_cycle;Max_cycle;Signal;HPM_P1;HPM_P2
2023/01/06 00:00:20;;;;;;;20.02;7.60;;;10.90;89.20;;;;;;5147518;27;20039;-75
2023/01/06 00:02:47;;;;;;;21.50;8.00;;;10.90;89.20;;;;;;5115295;27;20031;-75
2023/01/06 00:05:13;;;;;;;21.77;8.13;;;10.90;89.20;;;;;;5133015;27;20383;-75
2023/01/06 00:07:39;;;;;;;16.77;7.75;;;10.90;89.60;;;;;;5132533;27;20043;-75
2023/01/06 00:10:05;;;;;;;24.17;8.10;;;10.90;89.10;;;;;;5116122;27;20379;-75
2023/01/06 00:12:32;;;;;;;22.15;8.20;;;10.90;89.10;;;;;;5115190;28;20478;-75
2023/01/06 00:14:57;;;;;;;15.85;8.00;;;10.90;89.00;;;;;;5132860;27;20524;-75
2023/01/06 00:17:23;;;;;;;21.27;8.40;;;10.90;89.00;;;;;;5132368;27;20070;-75
2023/01/06 00:19:50;;;;;;;20.83;7.80;;;10.90;89.00;;;;;;5132648;27;20136;-75
2023/01/06 00:22:16;;;;;;;23.98;8.38;;;10.90;89.00;;;;;;5115531;28;20059;-75
2023/01/06 00:24:42;;;;;;;26.05;8.75;;;10.90;89.00;;;;;;5132956;27;20083;-75
2023/01/06 00:27:08;;;;;;;17.75;8.45;;;10.90;89.00;;;;;;5132762;27;20073;-75
2023/01/06 00:29:34;;;;;;;17.88;8.52;;;10.90;89.00;;;;;;5115909;28;20074;-75
2023/01/06 00:32:00;;;;;;;17.60;8.57;;;10.90;88.90;;;;;;5132698;27;20042;-75
2023/01/06 00:34:27;;;;;;;14.00;8.38;;;10.90;88.90;;;;;;5132784;27;20505;-75
2023/01/06 00:36:53;;;;;;;15.50;9.20;;;10.90;88.90;;;;;;5132817;28;20042;-75
2023/01/06 00:39:18;;;;;;;17.52;9.45;;;10.90;88.90;;;;;;5115553;28;20035;-75
2023/01/06 00:42:02;;;;;;;17.63;8.45;;;10.90;88.90;;;;;;5132579;28;20111;-75
2023/01/06 00:44:29;;;;;;;18.73;8.80;;;10.90;88.90;;;;;;5112126;28;20048;-76
2023/01/06 00:46:54;;;;;;;13.05;8.05;;;10.90;88.90;;;;;;5112039;28;20118;-76
2023/01/06 00:49:20;;;;;;;13.25;7.95;;;10.90;88.90;;;;;;5123747;28;20118;-76
2023/01/06 00:51:47;;;;;;;11.70;8.20;;;10.90;88.90;;;;;;5132197;27;20510;-75
2023/01/06 00:54:13;;;;;;;13.88;8.38;;;10.90;88.90;;;;;;5132646;28;20043;-75
2023/01/06 00:56:44;;;;;;;12.60;8.77;;;10.90;88.90;;;;;;5115173;28;20043;-75
2023/01/06 00:59:12;;;;;;;13.27;8.40;;;10.90;88.80;;;;;;5132308;28;20486;-75
2023/01/06 01:01:39;;;;;;;11.93;7.70;;;10.90;88.80;;;;;;5115338;28;20118;-75
2023/01/06 01:04:06;;;;;;;11.85;7.95;;;10.90;88.80;;;;;;5132266;28;20047;-75
2023/01/06 01:06:32;;;;;;;12.82;8.25;;;10.90;88.70;;;;;;5147026;27;20051;-75
2023/01/06 01:08:59;;;;;;;13.35;8.13;;;10.90;88.70;;;;;;5145821;27;20038;-75
2023/01/06 01:14:10;;;;;;;12.38;7.32;;;10.90;88.70;;;;;;5131979;27;20100;-75
2023/01/06 01:16:36;;;;;;;13.80;7.95;;;10.90;88.70;;;;;;5132442;28;20092;-75
2023/01/06 01:19:02;;;;;;;11.73;8.38;;;10.90;88.60;;;;;;5098205;27;20043;-75
2023/01/06 01:21:27;;;;;;;13.38;8.10;;;10.90;88.60;;;;;;5115045;28;20047;-75
2023/01/06 01:23:53;;;;;;;12.73;8.00;;;10.90;88.60;;;;;;5131828;27;20110;-75
2023/01/06 01:26:19;;;;;;;14.00;8.50;;;10.90;88.60;;;;;;5117273;27;20034;-75
2023/01/06 01:28:45;;;;;;;14.50;8.48;;;10.90;88.50;;;;;;5135854;27;20031;-75
2023/01/06 01:31:12;;;;;;;13.70;8.07;;;10.90;88.50;;;;;;5136038;27;20050;-75
2023/01/06 01:33:38;;;;;;;12.48;7.53;;;10.90;88.50;;;;;;5135532;27;20047;-75
2023/01/06 01:36:12;;;;;;;12.70;7.63;;;10.90;88.40;;;;;;5135723;27;20118;-75
2023/01/06 01:38:38;;;;;;;11.57;7.63;;;10.90;88.40;;;;;;5136179;27;20141;-75
2023/01/06 01:41:04;;;;;;;16.67;7.47;;;10.90;88.20;;;;;;5118377;27;20122;-75
2023/01/06 01:43:54;;;;;;;13.35;7.72;;;10.90;88.20;;;;;;5101399;27;20027;-75
2023/01/06 01:46:36;;;;;;;14.80;7.15;;;10.90;88.00;;;;;;5135589;27;20446;-76
2023/01/06 01:49:15;;;;;;;9.05;6.20;;;10.90;88.10;;;;;;5135378;27;20549;-76
2023/01/06 01:51:44;;;;;;;10.68;6.28;;;10.90;88.40;;;;;;5118491;27;20057;-76
2023/01/06 01:54:13;;;;;;;10.85;6.20;;;10.90;87.90;;;;;;5135308;27;20516;-76
2023/01/06 01:56:45;;;;;;;9.77;6.15;;;10.90;87.80;;;;;;5135151;27;20035;-76
2023/01/06 01:59:21;;;;;;;12.80;5.88;;;10.80;87.70;;;;;;5097791;28;20097;-76
2023/01/06 02:01:48;;;;;;;11.15;6.00;;;10.90;87.80;;;;;;5101981;27;20070;-75
2023/01/06 02:04:16;;;;;;;11.63;5.00;;;10.80;87.60;;;;;;5118279;27;20031;-75
2023/01/06 02:06:42;;;;;;;7.93;5.05;;;10.90;87.60;;;;;;5135134;27;20046;-75
2023/01/06 02:09:17;;;;;;;9.85;5.10;;;10.80;87.50;;;;;;5135234;27;20451;-75
2023/01/06 02:11:43;;;;;;;14.38;6.53;;;10.80;87.40;;;;;;5118408;27;20133;-75
2023/01/06 02:14:12;;;;;;;9.18;5.60;;;10.80;87.80;;;;;;5134725;27;20122;-75
2023/01/06 02:16:56;;;;;;;10.18;5.38;;;10.80;87.30;;;;;;5117988;27;20122;-75
2023/01/06 02:19:22;;;;;;;10.88;5.60;;;10.80;87.20;;;;;;5134869;27;20043;-75
2023/01/06 02:22:25;;;;;;;8.88;5.40;;;10.80;87.30;;;;;;5117747;27;20051;-75
2023/01/06 02:25:20;;;;;;;9.93;5.03;;;10.90;87.20;;;;;;5133955;27;20046;-75
2023/01/06 02:28:23;;;;;;;10.90;5.40;;;10.80;87.10;;;;;;5105054;27;20388;-75
2023/01/06 02:31:11;;;;;;;8.30;5.07;;;10.80;87.10;;;;;;5117374;27;20043;-70
2023/01/06 02:33:49;;;;;;;10.93;5.07;;;10.80;87.10;;;;;;5134544;27;20482;-71
2023/01/06 02:36:19;;;;;;;9.40;5.38;;;10.80;87.10;;;;;;5116662;27;20041;-72
2023/01/06 02:38:57;;;;;;;9.65;5.32;;;10.80;87.10;;;;;;5133734;27;20039;-72
2023/01/06 02:42:08;;;;;;;11.85;4.90;;;10.80;87.10;;;;;;5119602;27;20065;-71
2023/01/06 02:44:58;;;;;;;8.00;4.55;;;10.80;86.80;;;;;;5055545;28;20431;-71
2023/01/06 02:47:51;;;;;;;9.20;5.35;;;10.80;87.10;;;;;;5055045;28;20079;-71
2023/01/06 02:50:28;;;;;;;6.95;5.00;;;10.80;87.10;;;;;;5122495;27;20051;-71
2023/01/06 02:53:05;;;;;;;9.30;6.03;;;10.80;87.10;;;;;;5132274;27;20043;-71
2023/01/06 02:55:49;;;;;;;9.80;5.60;;;10.80;87.00;;;;;;5133734;27;20047;-71
2023/01/06 02:58:30;;;;;;;10.25;5.90;;;10.80;87.00;;;;;;5133834;27;20043;-72
2023/01/06 03:01:36;;;;;;;10.32;6.40;;;10.80;87.00;;;;;;5133824;27;20517;-71
2023/01/06 03:04:08;;;;;;;13.43;6.90;;;10.80;86.90;;;;;;5130250;27;20051;-71
2023/01/06 03:06:36;;;;;;;8.25;6.00;;;10.80;86.90;;;;;;5133361;27;20317;-71
2023/01/06 03:09:04;;;;;;;11.85;6.32;;;10.80;86.90;;;;;;5133831;27;20043;-71
2023/01/06 03:11:32;;;;;;;8.02;5.57;;;10.80;86.80;;;;;;5116612;27;20043;-71
2023/01/06 03:14:09;;;;;;;9.40;6.72;;;10.80;86.80;;;;;;5133555;27;20046;-71
2023/01/06 03:16:34;;;;;;;9.95;6.65;;;10.80;86.80;;;;;;5133671;27;20096;-71
2023/01/06 03:19:02;;;;;;;14.15;7.28;;;10.80;86.80;;;;;;5133718;27;20046;-71
2023/01/06 03:21:32;;;;;;;10.75;6.43;;;10.80;86.70;;;;;;5115921;27;20052;-71
2023/01/06 03:23:58;;;;;;;11.65;6.50;;;10.80;86.80;;;;;;5116105;27;20529;-71
2023/01/06 03:26:24;;;;;;;8.85;5.50;;;10.80;86.80;;;;;;5133465;27;20123;-71
2023/01/06 03:28:50;;;;;;;9.00;6.00;;;10.80;86.80;;;;;;5132893;27;20027;-71
2023/01/06 03:31:31;;;;;;;7.35;5.18;;;10.80;86.80;;;;;;5133232;27;20039;-71
2023/01/06 03:34:10;;;;;;;11.63;5.90;;;10.80;86.80;;;;;;5133155;27;20039;-71
2023/01/06 03:37:11;;;;;;;10.38;5.78;;;10.80;86.80;;;;;;5133076;27;20043;-72
2023/01/06 03:39:42;;;;;;;8.57;6.25;;;10.80;86.70;;;;;;5115400;27;20046;-72
2023/01/06 03:45:22;;;;;;;6.95;5.38;;;10.80;86.70;;;;;;5133173;27;20385;-72
2023/01/06 03:48:01;;;;;;;7.82;5.15;;;10.80;86.50;;;;;;5125582;27;20042;-72
2023/01/06 03:50:41;;;;;;;11.20;5.93;;;10.80;86.60;;;;;;5132971;27;20038;-72
2023/01/06 03:53:28;;;;;;;9.60;6.15;;;10.80;86.50;;;;;;5116077;27;20058;-74
2023/01/06 03:56:11;;;;;;;8.75;5.57;;;10.80;86.50;;;;;;5132982;27;20043;-74
2023/01/06 03:58:39;;;;;;;6.72;5.10;;;10.80;86.50;;;;;;5133460;27;20027;-74
2023/01/06 04:01:07;;;;;;;8.77;4.43;;;10.80;86.90;;;;;;5115877;27;20046;-74
2023/01/06 04:03:33;;;;;;;7.95;4.88;;;10.80;86.40;;;;;;5115974;27;20106;-74
2023/01/06 04:05:59;;;;;;;9.20;4.68;;;10.80;86.40;;;;;;5116227;27;20493;-74
2023/01/06 04:08:25;;;;;;;7.07;4.00;;;10.80;86.30;;;;;;5133168;27;20074;-74
2023/01/06 04:10:50;;;;;;;6.75;3.67;;;10.80;86.20;;;;;;5116240;27;20386;-74
2023/01/06 04:13:16;;;;;;;5.93;3.63;;;10.80;86.20;;;;;;5133015;27;20043;-74
2023/01/06 04:15:42;;;;;;;7.13;3.60;;;10.80;86.10;;;;;;5132971;27;20043;-74
2023/01/06 04:18:08;;;;;;;5.93;3.20;;;10.80;86.00;;;;;;5132648;27;20039;-74
2023/01/06 04:20:33;;;;;;;4.70;3.35;;;10.80;85.90;;;;;;5132421;28;20047;-75
2023/01/06 04:22:59;;;;;;;5.57;3.30;;;10.80;85.80;;;;;;5115657;28;20379;-75
2023/01/06 04:25:25;;;;;;;6.50;3.65;;;10.80;85.80;;;;;;5115708;28;20139;-75
2023/01/06 04:27:51;;;;;;;6.05;2.78;;;10.80;85.70;;;;;;5132748;27;20035;-75
2023/01/06 04:30:17;;;;;;;6.28;3.30;;;10.80;85.70;;;;;;5132847;28;20075;-75
2023/01/06 04:32:43;;;;;;;5.78;3.22;;;10.80;85.70;;;;;;5132532;27;20031;-75
2023/01/06 04:35:09;;;;;;;4.15;3.03;;;10.80;85.60;;;;;;5132350;28;20039;-75
2023/01/06 04:37:35;;;;;;;7.30;3.30;;;10.80;85.50;;;;;;5132701;27;20039;-75
2023/01/06 04:40:01;;;;;;;6.47;3.42;;;10.80;85.50;;;;;;5132709;28;20042;-75
2023/01/06 04:42:27;;;;;;;6.45;3.40;;;10.80;85.40;;;;;;5132801;27;20121;-75
2023/01/06 04:44:52;;;;;;;8.13;3.33;;;10.80;85.40;;;;;;5132410;27;20027;-75
2023/01/06 04:47:18;;;;;;;5.80;4.10;;;10.80;85.30;;;;;;5115717;27;20027;-75
2023/01/06 04:49:44;;;;;;;6.32;4.18;;;10.80;85.30;;;;;;5132763;28;20035;-75
2023/01/06 04:52:09;;;;;;;8.95;4.65;;;10.80;85.30;;;;;;5132416;28;20424;-75
2023/01/06 04:54:35;;;;;;;6.07;4.65;;;10.80;85.30;;;;;;5132511;28;20611;-75
2023/01/06 04:57:02;;;;;;;6.43;4.38;;;10.80;85.30;;;;;;5115292;28;20039;-75
2023/01/06 04:59:27;;;;;;;6.00;4.78;;;10.80;85.20;;;;;;5133795;27;20036;-75
2023/01/06 05:01:53;;;;;;;6.00;4.78;;;10.80;85.20;;;;;;5136381;27;20050;-75
2023/01/06 05:04:19;;;;;;;8.13;4.35;;;10.80;85.10;;;;;;5136116;27;20039;-75
2023/01/06 05:06:45;;;;;;;8.07;5.50;;;10.80;85.10;;;;;;5136156;27;20056;-75
2023/01/06 05:09:10;;;;;;;8.02;4.97;;;10.80;85.00;;;;;;5136460;27;20035;-75
2023/01/06 05:11:36;;;;;;;7.05;4.40;;;10.80;85.00;;;;;;5118978;27;20062;-75
2023/01/06 05:14:02;;;;;;;7.03;4.47;;;10.80;85.00;;;;;;5136018;27;20043;-75
2023/01/06 05:16:30;;;;;;;6.93;4.20;;;10.80;84.90;;;;;;5119120;27;20035;-75
2023/01/06 05:18:57;;;;;;;6.47;4.10;;;10.80;84.80;;;;;;5119004;27;20043;-75
2023/01/06 05:21:24;;;;;;;5.15;3.92;;;10.80;84.80;;;;;;5135901;27;20047;-75
2023/01/06 05:23:50;;;;;;;6.45;3.70;;;10.80;84.80;;;;;;5118810;27;20047;-75
2023/01/06 05:26:19;;;;;;;6.53;3.65;;;10.80;84.80;;;;;;5118996;27;20118;-75
2023/01/06 05:28:46;;;;;;;4.22;3.30;;;10.90;84.80;;;;;;5135881;27;20041;-75
2023/01/06 05:31:11;;;;;;;4.13;3.03;;;10.80;84.80;;;;;;5135935;27;20054;-75
2023/01/06 05:33:37;;;;;;;4.68;3.30;;;10.90;84.80;;;;;;5136230;27;20035;-75
2023/01/06 05:36:09;;;;;;;4.88;3.72;;;10.80;84.80;;;;;;5135762;27;20046;-75
2023/01/06 05:38:34;;;;;;;6.72;3.65;;;10.90;84.80;;;;;;5135739;27;20043;-75
2023/01/06 05:41:00;;;;;;;6.43;3.42;;;10.80;84.80;;;;;;5135749;27;20058;-75
2023/01/06 05:43:27;;;;;;;10.48;4.05;;;10.80;84.80;;;;;;5140523;27;20113;-75
2023/01/06 05:45:54;;;;;;;7.13;3.55;;;10.90;84.90;;;;;;5118820;27;20027;-75
2023/01/06 05:48:22;;;;;;;7.78;3.40;;;10.80;84.80;;;;;;5153276;27;20043;-74
2023/01/06 05:50:48;;;;;;;5.45;3.58;;;10.80;84.80;;;;;;5135650;27;20509;-74
2023/01/06 05:53:14;;;;;;;8.23;3.63;;;10.80;84.80;;;;;;5135784;27;20223;-75
2023/01/06 05:55:39;;;;;;;6.18;3.53;;;10.80;84.80;;;;;;5135484;27;20478;-75
2023/01/06 05:58:05;;;;;;;5.47;3.53;;;10.80;84.80;;;;;;5135551;27;20474;-75
2023/01/06 06:00:31;;;;;;;4.75;3.42;;;10.80;84.80;;;;;;5135190;27;20035;-75
2023/01/06 06:02:56;;;;;;;7.13;3.70;;;10.80;84.90;;;;;;5135451;27;20031;-75
2023/01/06 06:05:22;;;;;;;5.75;3.60;;;10.80;84.90;;;;;;5135379;27;20071;-75
2023/01/06 06:07:52;;;;;;;6.13;4.10;;;10.80;85.00;;;;;;5135210;27;20039;-75
2023/01/06 06:10:18;;;;;;;5.53;4.13;;;10.80;85.00;;;;;;5134960;27;20410;-75
2023/01/06 06:12:44;;;;;;;6.25;4.07;;;10.80;85.00;;;;;;5134331;27;20058;-74
2023/01/06 06:15:09;;;;;;;6.60;4.72;;;10.80;85.10;;;;;;5117813;27;20067;-75
2023/01/06 06:17:35;;;;;;;7.25;4.88;;;10.80;85.10;;;;;;5135593;27;20039;-74
2023/01/06 06:20:02;;;;;;;8.35;4.38;;;10.80;85.20;;;;;;5118358;27;20043;-74
2023/01/06 06:22:27;;;;;;;7.97;5.32;;;10.80;85.30;;;;;;5117933;27;20119;-75
2023/01/06 06:24:53;;;;;;;7.25;5.03;;;10.80;85.40;;;;;;5134887;27;20047;-75
2023/01/06 06:27:19;;;;;;;6.00;4.68;;;10.80;85.50;;;;;;5134308;27;20039;-75
2023/01/06 06:29:44;;;;;;;5.68;4.60;;;10.80;85.60;;;;;;5134569;27;20039;-75
2023/01/06 06:32:10;;;;;;;6.85;5.07;;;10.80;85.70;;;;;;5134596;27;20060;-75
2023/01/06 06:34:36;;;;;;;6.45;4.88;;;10.80;85.80;;;;;;5134436;27;20032;-75
2023/01/06 06:37:02;;;;;;;7.63;4.45;;;10.80;85.90;;;;;;5134572;27;20047;-76
2023/01/06 06:39:27;;;;;;;7.10;4.53;;;10.80;86.00;;;;;;5134655;27;20043;-75
2023/01/06 06:41:53;;;;;;;5.78;4.70;;;10.70;86.10;;;;;;5117232;27;20066;-75
2023/01/06 06:44:19;;;;;;;6.65;5.13;;;10.70;86.20;;;;;;5134575;27;20091;-75
2023/01/06 06:46:45;;;;;;;6.72;5.45;;;10.70;86.20;;;;;;5117235;27;20043;-75
2023/01/06 06:49:10;;;;;;;8.48;5.20;;;10.70;86.40;;;;;;5117385;27;20035;-75
2023/01/06 06:51:36;;;;;;;6.22;5.57;;;10.70;86.40;;;;;;5134379;27;20043;-75
2023/01/06 06:54:02;;;;;;;8.38;5.47;;;10.70;86.50;;;;;;5134575;27;20046;-75
2023/01/06 06:56:28;;;;;;;5.93;5.05;;;10.70;86.70;;;;;;5134473;27;20043;-75
2023/01/06 06:58:54;;;;;;;7.18;5.38;;;10.70;86.80;;;;;;5134533;27;20099;-75
2023/01/06 07:01:20;;;;;;;6.13;5.32;;;10.70;86.80;;;;;;5116896;27;20067;-75
2023/01/06 07:03:46;;;;;;;8.40;5.47;;;10.70;86.90;;;;;;5134411;27;20064;-74
2023/01/06 07:06:15;;;;;;;8.27;5.53;;;10.70;86.90;;;;;;5117171;27;20415;-74
2023/01/06 07:08:47;;;;;;;6.65;5.10;;;10.70;87.00;;;;;;5134667;27;20444;-74
2023/01/06 07:11:13;;;;;;;5.60;5.00;;;10.70;87.20;;;;;;5134238;27;20035;-74
2023/01/06 07:13:38;;;;;;;5.38;4.88;;;10.70;87.20;;;;;;5133664;27;20520;-74
2023/01/06 07:16:05;;;;;;;5.90;5.13;;;10.70;87.20;;;;;;5116584;27;20050;-75
2023/01/06 07:18:30;;;;;;;5.72;5.13;;;10.70;87.30;;;;;;5116620;27;20091;-74
2023/01/06 07:20:56;;;;;;;5.43;4.43;;;10.70;87.50;;;;;;5116487;27;20043;-75
2023/01/06 07:23:23;;;;;;;6.25;4.35;;;10.70;87.60;;;;;;5133992;27;20043;-75
2023/01/06 07:25:53;;;;;;;4.65;4.10;;;10.60;87.60;;;;;;5133695;27;20031;-74
2023/01/06 07:28:19;;;;;;;5.85;4.03;;;10.60;87.70;;;;;;5133927;27;20039;-74
2023/01/06 07:30:45;;;;;;;5.63;3.45;;;10.60;87.70;;;;;;5133642;27;20559;-74
2023/01/06 07:33:11;;;;;;;5.30;4.25;;;10.70;87.80;;;;;;5133571;27;20035;-74
2023/01/06 07:35:36;;;;;;;4.03;3.33;;;10.60;87.80;;;;;;5133418;27;20122;-74
2023/01/06 07:38:06;;;;;;;4.75;3.70;;;10.60;87.90;;;;;;5116269;27;20050;-75
2023/01/06 07:40:32;;;;;;;3.63;3.13;;;10.60;88.00;;;;;;5133573;27;20401;-75
2023/01/06 07:43:05;;;;;;;4.85;3.30;;;10.60;88.10;;;;;;5133525;27;20088;-75
2023/01/06 07:45:32;;;;;;;3.90;3.15;;;10.70;88.30;;;;;;5133401;27;20119;-75
2023/01/06 07:47:57;;;;;;;4.65;3.10;;;10.70;88.10;;;;;;5133399;27;20067;-75
2023/01/06 07:50:24;;;;;;;3.60;2.78;;;10.70;88.20;;;;;;5133580;27;20071;-75
2023/01/06 07:52:50;;;;;;;3.95;2.40;;;10.70;88.20;;;;;;5116516;27;20046;-75
2023/01/06 07:55:16;;;;;;;5.32;2.20;;;10.70;88.20;;;;;;5133079;27;20046;-74
2023/01/06 07:57:41;;;;;;;4.78;2.13;;;10.60;88.10;;;;;;5133164;27;20053;-75
2023/01/06 08:00:08;;;;;;;5.05;2.08;;;10.60;87.90;;;;;;5115877;27;20039;-75
2023/01/06 08:02:34;;;;;;;5.03;1.67;;;10.60;87.70;;;;;;5133087;27;20046;-75
2023/01/06 08:04:59;;;;;;;5.38;1.85;;;10.60;87.50;;;;;;5132731;27;20035;-75
2023/01/06 08:07:25;;;;;;;4.65;1.92;;;10.60;87.30;;;;;;5115821;27;20153;-75
2023/01/06 08:09:51;;;;;;;5.95;1.63;;;10.60;87.20;;;;;;5133305;27;20095;-76
2023/01/06 08:12:17;;;;;;;4.95;1.70;;;10.50;87.00;;;;;;5132959;27;20031;-74
2023/01/06 08:14:42;;;;;;;3.83;1.20;;;10.50;86.80;;;;;;5115973;27;20078;-74
2023/01/06 08:17:08;;;;;;;6.25;1.35;;;10.50;86.60;;;;;;5133010;27;20027;-74
2023/01/06 08:19:34;;;;;;;3.83;1.75;;;10.50;86.50;;;;;;5132903;27;20104;-74
2023/01/06 08:22:00;;;;;;;5.57;1.35;;;10.40;86.30;;;;;;5132398;27;20074;-74
2023/01/06 08:24:25;;;;;;;4.78;1.20;;;10.40;86.10;;;;;;5132926;27;20410;-74
2023/01/06 08:26:51;;;;;;;4.28;1.25;;;10.40;85.90;;;;;;5132772;27;20039;-74
2023/01/06 08:29:17;;;;;;;4.80;1.30;;;10.40;85.80;;;;;;5132441;27;20046;-74
2023/01/06 08:31:42;;;;;;;7.05;1.67;;;10.30;85.60;;;;;;5132657;28;20043;-74
2023/01/06 08:34:10;;;;;;;3.38;1.02;;;10.30;85.30;;;;;;5133800;27;20037;-74
2023/01/06 08:36:36;;;;;;;5.78;1.27;;;10.30;85.20;;;;;;5132740;28;20053;-74
2023/01/06 08:39:01;;;;;;;3.95;0.90;;;10.20;85.00;;;;;;5132421;27;20039;-74
2023/01/06 08:41:27;;;;;;;7.82;0.90;;;10.20;84.80;;;;;;5115292;28;20052;-74
2023/01/06 08:43:54;;;;;;;7.30;1.80;;;10.20;84.70;;;;;;5132521;27;20071;-74
2023/01/06 08:46:19;;;;;;;5.30;0.93;;;10.20;84.70;;;;;;5132254;28;20031;-75
2023/01/06 08:48:46;;;;;;;5.57;1.17;;;10.10;84.60;;;;;;5132152;28;20154;-74
2023/01/06 08:51:14;;;;;;;5.07;1.05;;;10.10;84.50;;;;;;5132727;27;20074;-74
2023/01/06 08:53:40;;;;;;;4.05;0.90;;;10.10;84.40;;;;;;5132546;28;20077;-74
2023/01/06 08:56:21;;;;;;;6.03;1.50;;;10.10;84.20;;;;;;5128568;28;20074;-74
2023/01/06 08:58:56;;;;;;;3.50;0.90;;;10.10;84.10;;;;;;5132779;27;20439;-74
2023/01/06 09:01:26;;;;;;;4.70;1.00;;;10.10;84.00;;;;;;5132497;28;20043;-74
2023/01/06 09:03:52;;;;;;;7.32;1.42;;;10.00;83.90;;;;;;5132901;27;20449;-74
2023/01/06 09:06:18;;;;;;;6.03;0.93;;;10.00;83.90;;;;;;5132361;28;20075;-74
2023/01/06 09:08:44;;;;;;;4.30;1.48;;;10.00;83.80;;;;;;5132451;27;20114;-74
2023/01/06 09:11:11;;;;;;;6.85;1.08;;;10.00;83.60;;;;;;5132400;27;20043;-75
2023/01/06 09:13:37;;;;;;;4.13;1.15;;;10.00;83.60;;;;;;5114956;28;20494;-74
2023/01/06 09:16:07;;;;;;;5.03;1.10;;;10.00;83.50;;;;;;5132297;27;20043;-74
2023/01/06 09:18:33;;;;;;;7.93;1.10;;;10.00;83.40;;;;;;5132429;28;20050;-74
2023/01/06 09:20:59;;;;;;;8.57;1.63;;;10.00;83.40;;;;;;5131661;28;20051;-75
2023/01/06 09:23:25;;;;;;;7.35;1.70;;;10.00;83.20;;;;;;5132133;28;20035;-75
2023/01/06 09:25:51;;;;;;;6.50;1.38;;;10.00;83.10;;;;;;5115361;28;20043;-75
2023/01/06 09:28:16;;;;;;;4.22;1.35;;;10.00;82.80;;;;;;5132161;27;20562;-74
2023/01/06 09:30:45;;;;;;;6.72;2.28;;;10.00;82.70;;;;;;5132236;27;20035;-74
2023/01/06 09:33:10;;;;;;;6.22;1.10;;;10.00;82.70;;;;;;5133113;27;20047;-74
2023/01/06 09:35:36;;;;;;;4.03;1.10;;;10.00;82.60;;;;;;5115028;28;20058;-75
2023/01/06 09:38:02;;;;;;;8.10;1.55;;;9.90;82.50;;;;;;5131868;28;20046;-75
2023/01/06 09:40:50;;;;;;;7.10;1.27;;;10.00;82.70;;;;;;5131784;27;20397;-74
2023/01/06 09:43:30;;;;;;;5.22;1.17;;;10.00;82.50;;;;;;5131851;28;20050;-74
2023/01/06 09:46:00;;;;;;;4.53;1.33;;;10.00;82.60;;;;;;5132579;27;20031;-74
2023/01/06 09:48:35;;;;;;;6.32;0.98;;;10.00;82.70;;;;;;5136110;27;20477;-74
2023/01/06 09:51:04;;;;;;;9.25;2.28;;;10.10;82.70;;;;;;5135674;27;20474;-74
2023/01/06 09:53:41;;;;;;;9.68;1.65;;;10.10;82.60;;;;;;5118591;27;20046;-74
2023/01/06 09:56:12;;;;;;;7.40;1.40;;;10.20;82.50;;;;;;5135943;27;20435;-74
2023/01/06 09:58:46;;;;;;;7.90;1.80;;;10.20;82.40;;;;;;5135529;27;20393;-74
2023/01/06 10:01:15;;;;;;;7.18;1.48;;;10.20;82.30;;;;;;5135646;27;20039;-74
2023/01/06 10:03:44;;;;;;;7.97;1.58;;;10.20;82.10;;;;;;5135609;27;20122;-74
2023/01/06 10:06:48;;;;;;;6.75;1.10;;;10.30;82.20;;;;;;5135470;27;20118;-74
2023/01/06 10:09:49;;;;;;;5.25;1.08;;;10.40;82.10;;;;;;5135413;27;20309;-74
2023/01/06 10:12:36;;;;;;;8.93;1.55;;;10.40;82.10;;;;;;5135258;27;20043;-74
2023/01/06 10:15:09;;;;;;;8.23;1.52;;;10.40;82.10;;;;;;5135231;27;20051;-74
2023/01/06 10:17:54;;;;;;;7.65;1.50;;;10.40;82.10;;;;;;5135427;27;20146;-74
2023/01/06 10:20:40;;;;;;;9.00;1.77;;;10.40;81.90;;;;;;5135198;27;20106;-74
2023/01/06 10:23:28;;;;;;;8.15;1.38;;;10.50;81.80;;;;;;5134967;27;20517;-74
2023/01/06 10:26:02;;;;;;;8.63;1.75;;;10.50;81.80;;;;;;5135080;27;20126;-74
2023/01/06 10:28:33;;;;;;;7.93;1.30;;;10.50;81.80;;;;;;5134845;27;20035;-74
2023/01/06 10:31:07;;;;;;;8.27;1.58;;;10.60;81.80;;;;;;5135273;27;20039;-74
2023/01/06 10:33:40;;;;;;;12.23;1.60;;;10.60;81.70;;;;;;5135208;27;20454;-74
2023/01/06 10:36:12;;;;;;;7.72;1.92;;;10.60;81.70;;;;;;5134811;27;20285;-74
2023/01/06 10:38:51;;;;;;;8.43;1.55;;;10.60;81.70;;;;;;5134661;27;20100;-74
2023/01/06 10:41:26;;;;;;;11.30;1.83;;;10.60;81.50;;;;;;5134357;27;20077;-74
2023/01/06 10:43:51;;;;;;;11.20;1.80;;;10.70;81.40;;;;;;5134733;27;20043;-74
2023/01/06 10:46:17;;;;;;;12.50;2.15;;;10.60;81.20;;;;;;5134594;27;20039;-74
2023/01/06 10:48:45;;;;;;;8.48;1.90;;;10.70;81.30;;;;;;5134240;27;20110;-74
2023/01/06 10:51:35;;;;;;;7.20;1.20;;;10.70;81.10;;;;;;5134568;27;20051;-74
2023/01/06 10:54:16;;;;;;;7.05;1.77;;;10.70;81.00;;;;;;5134546;27;20042;-74
2023/01/06 10:56:51;;;;;;;8.23;1.58;;;10.70;80.90;;;;;;5134207;27;20054;-74
2023/01/06 10:59:17;;;;;;;11.27;1.83;;;10.70;80.80;;;;;;5134550;27;20051;-74
2023/01/06 11:01:55;;;;;;;8.95;1.77;;;10.70;80.80;;;;;;5117258;27;20368;-74
2023/01/06 11:04:22;;;;;;;9.68;1.80;;;10.70;80.70;;;;;;5134511;27;20047;-74
2023/01/06 11:06:56;;;;;;;9.40;1.65;;;10.70;80.80;;;;;;5134041;27;20486;-74
2023/01/06 11:09:30;;;;;;;8.48;1.60;;;10.70;80.60;;;;;;5117047;27;20045;-74
2023/01/06 11:11:59;;;;;;;8.95;1.65;;;10.70;80.50;;;;;;5117252;27;20420;-74
2023/01/06 11:14:29;;;;;;;9.48;1.85;;;10.70;80.40;;;;;;5133917;27;20375;-74
2023/01/06 11:17:12;;;;;;;7.47;1.58;;;10.60;80.30;;;;;;5133967;27;20043;-74
2023/01/06 11:19:40;;;;;;;12.90;1.98;;;10.70;80.30;;;;;;5133684;27;20074;-74
2023/01/06 11:22:35;;;;;;;8.43;1.63;;;10.60;80.40;;;;;;5133640;27;20055;-74
2023/01/06 11:25:03;;;;;;;4.78;1.40;;;10.70;80.40;;;;;;5133788;27;20070;-74
2023/01/06 11:27:29;;;;;;;7.28;1.67;;;10.60;80.50;;;;;;5134024;27;20027;-74
2023/01/06 11:29:54;;;;;;;7.72;1.52;;;10.60;80.30;;;;;;5133737;27;20470;-74
2023/01/06 11:32:26;;;;;;;7.75;1.67;;;10.60;80.30;;;;;;5116340;27;20127;-74
2023/01/06 11:34:54;;;;;;;7.88;1.38;;;10.60;80.30;;;;;;5133775;27;20043;-74
2023/01/06 11:37:40;;;;;;;6.68;1.40;;;10.60;80.30;;;;;;5133033;27;20391;-74
2023/01/06 11:40:31;;;;;;;7.53;1.27;;;10.60;80.20;;;;;;5139866;27;20035;-74
2023/01/06 11:43:09;;;;;;;7.15;1.52;;;10.60;80.10;;;;;;5124543;27;20026;-74
2023/01/06 11:45:43;;;;;;;10.30;1.50;;;10.60;80.00;;;;;;5142269;27;20049;-74
2023/01/06 11:48:27;;;;;;;8.88;1.48;;;10.60;80.10;;;;;;5142955;27;20042;-73
2023/01/06 11:50:58;;;;;;;5.80;1.27;;;10.60;80.00;;;;;;5143985;27;20043;-74
2023/01/06 11:53:25;;;;;;;8.27;1.33;;;10.60;80.20;;;;;;5141458;27;20106;-74
2023/01/06 11:56:01;;;;;;;6.03;1.85;;;10.60;80.20;;;;;;5125758;27;20039;-74
2023/01/06 11:58:50;;;;;;;7.28;1.52;;;10.60;80.20;;;;;;5124018;27;20478;-74
2023/01/06 12:01:44;;;;;;;6.28;1.63;;;10.60;80.10;;;;;;5124833;27;20095;-73
2023/01/06 12:04:14;;;;;;;10.85;2.63;;;10.50;80.10;;;;;;5140391;27;20118;-73
2023/01/06 12:06:42;;;;;;;15.15;2.42;;;10.50;80.20;;;;;;5140183;27;20420;-74
2023/01/06 12:09:32;;;;;;;9.50;1.83;;;10.50;80.10;;;;;;5123585;27;20077;-73
2023/01/06 12:12:08;;;;;;;10.68;1.83;;;10.50;79.60;;;;;;5143164;27;20134;-73
2023/01/06 12:14:36;;;;;;;9.88;1.85;;;10.50;79.80;;;;;;5139112;27;20038;-73
2023/01/06 12:17:26;;;;;;;8.75;1.92;;;10.40;79.90;;;;;;5143358;27;20027;-73
2023/01/06 12:20:04;;;;;;;7.22;1.60;;;10.50;79.90;;;;;;5140361;27;20104;-73
2023/01/06 12:22:39;;;;;;;4.40;1.30;;;10.50;80.00;;;;;;5125096;27;20045;-73
2023/01/06 12:25:18;;;;;;;8.88;1.48;;;10.50;79.90;;;;;;5142382;27;20038;-73
2023/01/06 12:27:50;;;;;;;7.53;1.35;;;10.50;79.90;;;;;;5140184;27;20043;-73
2023/01/06 12:30:55;;;;;;;12.57;1.90;;;10.40;79.80;;;;;;5126352;27;20045;-73
2023/01/06 12:33:27;;;;;;;11.35;2.08;;;10.40;79.70;;;;;;5140856;27;20121;-73
2023/01/06 12:35:58;;;;;;;9.23;2.22;;;10.40;80.00;;;;;;5141852;27;20416;-74
2023/01/06 12:38:45;;;;;;;9.15;1.83;;;10.40;79.90;;;;;;5150906;27;20046;-74
2023/01/06 12:41:46;;;;;;;8.18;1.92;;;10.40;79.70;;;;;;5135945;27;20054;-73
2023/01/06 12:44:21;;;;;;;8.73;1.48;;;10.40;79.80;;;;;;5153392;27;20042;-73
2023/01/06 12:47:00;;;;;;;9.70;1.73;;;10.40;80.00;;;;;;5136117;27;20039;-73
2023/01/06 12:49:40;;;;;;;6.18;1.63;;;10.40;80.00;;;;;;5143238;27;20048;-74
2023/01/06 12:52:11;;;;;;;4.65;1.50;;;10.40;80.20;;;;;;5115487;28;20054;-74
2023/01/06 12:54:37;;;;;;;10.18;1.63;;;10.40;80.30;;;;;;5132621;28;20052;-74
2023/01/06 12:57:23;;;;;;;8.77;1.98;;;10.40;80.10;;;;;;5115467;27;20101;-74
2023/01/06 13:00:01;;;;;;;10.20;1.50;;;10.40;79.80;;;;;;5132099;28;20505;-74
2023/01/06 13:02:42;;;;;;;8.52;1.35;;;10.40;79.90;;;;;;5132810;28;20402;-74
2023/01/06 13:05:46;;;;;;;6.50;1.35;;;10.50;79.80;;;;;;5132519;27;20043;-74
2023/01/06 13:08:14;;;;;;;5.75;1.23;;;10.40;79.50;;;;;;5132448;27;20043;-74
2023/01/06 13:10:47;;;;;;;9.45;3.15;;;10.40;79.70;;;;;;5132474;28;20087;-74